Flight Track Log - Related Links

Times and Time Zones

All times are in EDT time to prevent confusion due to time zone crossing. See the UAL4234 flight status page for this flight to view local times or setup timezone preferences in your user account.

Time Position Orientation Groundspeed Altitude Reporting Facility
EDT Latitude Longitude Course Direction KTS MPH feet Rate Location/Type
Sat 09:34:19 AM 40.6667 -74.1833 246° West 155 178 1,200  Level New York TRACON
Sat 09:35:19 AM 40.6333 -74.2167 217° Southwest 188 216 3,000 2,033 Climbing New York TRACON
Sat 09:36:20 AM 40.6167 -74.2833 252° West 211 243 5,300 2,238 Climbing New York TRACON
Sat 09:37:00 AM 40.5375 -74.5905 250° West  Level FlightAware Approximate
Sat 09:37:25 AM 40.6167 -74.3667 270° West 231 266 7,700  Level New York TRACON
Sat 09:38:00 AM 40.5043 -74.7038 246° West  Level FlightAware Approximate
Sat 09:38:25 AM 40.6000 -74.4667 258° West 236 272 9,900  Level New York TRACON
Sat 09:39:00 AM 40.4672 -74.8151 246° West  Level FlightAware Approximate
Sat 09:40:53 AM 40.5392 -74.6625 248° West 258 297 14,200  Level New York Center
Sat 09:41:53 AM 40.5028 -74.7558 243° Southwest 272 313 15,300 984 Climbing New York Center
Sat 09:42:55 AM 40.4639 -74.8572 243° Southwest 303 349 16,200 900 Climbing New York Center
Sat 09:43:53 AM 40.4247 -74.9642 244° Southwest 322 371 17,100 966 Climbing New York Center
Sat 09:44:53 AM 40.3631 -75.0556 228° Southwest 330 380 18,100 1,033 Climbing New York Center
Sat 09:45:55 AM 40.2969 -75.1469 227° Southwest 345 397 19,200 1,091 Climbing New York Center
Sat 09:46:54 AM 40.2311 -75.2406 227° Southwest 351 404 20,300 1,150 Climbing New York Center
Sat 09:47:55 AM 40.1650 -75.3342 227° Southwest 351 404 21,500 1,190 Climbing New York Center
Sat 09:48:55 AM 40.0989 -75.4247 226° Southwest 351 404 22,700 1,169 Climbing New York Center
Sat 09:49:53 AM 40.0325 -75.5206 228° Southwest 351 404 23,800 1,179 Climbing New York Center
Sat 09:50:52 AM 39.9642 -75.6108 225° Southwest 357 411 25,000 1,200 Climbing New York Center
Sat 09:51:53 AM 39.9000 -75.7036 228° Southwest 357 411 26,200 1,150 Climbing New York Center
Sat 09:52:52 AM 39.8414 -75.8025 232° Southwest 357 411 27,300 1,150 Climbing New York Center
Sat 09:53:53 AM 39.7811 -75.8953 230° Southwest 349 402 28,500 1,091 Climbing New York Center
Sat 09:54:53 AM 39.7228 -75.9883 231° Southwest 344 396 29,500 1,024 Climbing New York Center
Sat 09:57:24 AM 39.5808 -76.2136 231° Southwest 338 389 32,100 1,148 Climbing Washington Center
Sat 09:58:22 AM 39.5178 -76.3044 228° Southwest 338 389 33,500 1,412 Climbing Washington Center
Sat 09:59:23 AM 39.4631 -76.3925 231° Southwest 338 389 34,900 1,140 Climbing Washington Center
Sat 10:00:23 AM 39.4042 -76.4806 229° Southwest 326 375 35,800 545 Climbing Washington Center
Sat 10:01:24 AM 39.3386 -76.5792 229° Southwest 331 381 36,000 99 Climbing Washington Center
Sat 10:02:24 AM 39.2775 -76.6747 230° Southwest 342 394 36,000  Level Washington Center
Sat 10:03:22 AM 39.2161 -76.7731 231° Southwest 354 407 36,000  Level Washington Center
Sat 10:04:22 AM 39.1483 -76.8789 230° Southwest 366 421 36,000  Level Washington Center
Sat 10:05:23 AM 39.0847 -76.9794 231° Southwest 376 433 36,000  Level Washington Center
Sat 10:06:24 AM 39.0128 -77.0717 225° Southwest 376 433 36,000  Level Washington Center
Sat 10:07:21 AM 38.9367 -77.1556 221° Southwest 369 425 36,000  Level Washington Center
Sat 10:08:22 AM 38.8583 -77.2417 221° Southwest 369 425 36,000  Level Washington Center
Sat 10:09:23 AM 38.7800 -77.3253 220° Southwest 369 425 36,000  Level Washington Center
Sat 10:10:24 AM 38.7036 -77.4111 221° Southwest 369 425 36,000  Level Washington Center
Sat 10:11:21 AM 38.6231 -77.4969 220° Southwest 369 425 36,000  Level Washington Center
Sat 10:12:22 AM 38.5614 -77.5669 222° Southwest 369 425 36,000  Level Washington Center
Sat 10:13:22 AM 38.4767 -77.6575 220° Southwest 369 425 36,000  Level Washington Center
Sat 10:14:21 AM 38.4000 -77.7403 220° Southwest 369 425 36,000  Level Washington Center
Sat 10:15:22 AM 38.3236 -77.8228 220° Southwest 369 425 36,000  Level Washington Center
Sat 10:16:23 AM 38.2489 -77.9053 221° Southwest 369 425 36,000  Level Washington Center
Sat 10:17:24 AM 38.1744 -77.9847 220° Southwest 364 419 36,000  Level Washington Center
Sat 10:18:21 AM 38.0956 -78.0667 219° Southwest 364 419 36,000  Level Washington Center
Sat 10:19:23 AM 38.0208 -78.1486 221° Southwest 364 419 36,000  Level Washington Center
Sat 10:20:24 AM 37.9542 -78.2439 228° Southwest 341 392 36,000  Level Washington Center
Sat 10:21:22 AM 37.8958 -78.3311 230° Southwest 336 387 36,000  Level Washington Center
Sat 10:22:22 AM 37.8397 -78.4106 228° Southwest 336 387 36,000  Level Washington Center
Sat 10:23:23 AM 37.7772 -78.4978 228° Southwest 336 387 36,000  Level Washington Center
Sat 10:24:24 AM 37.7125 -78.5897 228° Southwest 343 395 36,000 -305 Level Washington Center
Sat 10:25:21 AM 37.6497 -78.6789 228° Southwest 348 400 35,400 -908 Descending Washington Center
Sat 10:26:23 AM 37.5761 -78.7833 228° Southwest 354 407 34,200 -1,033 Descending Washington Center
Sat 10:27:23 AM 37.5108 -78.8775 229° Southwest 354 407 33,300 -942 Descending Washington Center
Sat 10:28:24 AM 37.4417 -78.9714 227° Southwest 359 413 32,300 -992 Descending Washington Center
Sat 10:29:24 AM 37.3719 -79.0728 229° Southwest 370 426 31,300 -1,017 Descending Washington Center
Sat 10:30:22 AM 37.3089 -79.1586 227° Southwest 375 432 30,300 -661 Descending Washington Center
Sat 10:31:22 AM 37.2331 -79.2517 224° Southwest 375 432 30,000 -347 Descending Washington Center
Sat 10:32:23 AM 37.1472 -79.3258 215° Southwest 375 432 29,600 -793 Descending Washington Center
Sat 10:33:23 AM 37.0617 -79.3944 213° Southwest 375 432 28,400 -814 Descending Washington Center
Sat 10:34:21 AM 36.9758 -79.4658 214° Southwest 375 432 28,000 -202 Descending Washington Center
Sat 10:35:22 AM 36.8731 -79.5489 213° Southwest 391 450 28,000  Level Washington Center
Sat 10:36:23 AM 36.7831 -79.6219 213° Southwest 396 456 28,000 -179 Level Washington Center
Sat 10:38:10 AM 36.6156 -79.7583 213° Southwest 400 460 27,500 -790 Descending Atlanta Center
Sat 10:39:10 AM 36.5283 -79.8303 214° Southwest 400 460 25,800 -1,800 Descending Atlanta Center
Sat 10:40:10 AM 36.4350 -79.9047 213° Southwest 400 460 23,900 -1,750 Descending Atlanta Center
Sat 10:41:10 AM 36.3436 -79.9792 213° Southwest 400 460 22,300 -950 Descending Atlanta Center
Sat 10:42:10 AM 36.2564 -80.0531 214° Southwest 400 460 22,000 -1,500 Descending Atlanta Center
Sat 10:43:10 AM 36.1589 -80.1350 214° Southwest 394 453 19,300 -2,450 Descending Atlanta Center
Sat 10:44:10 AM 36.0778 -80.2056 215° Southwest 381 438 17,100 -1,950 Descending Atlanta Center
Sat 10:45:10 AM 35.9964 -80.2736 214° Southwest 364 419 15,400 -1,630 Descending Atlanta Center
Sat 10:45:42 AM 35.9536 -80.3117 216° Southwest 362 417 14,600 -1,400 Descending Atlanta Center
Sat 10:46:10 AM 35.9150 -80.3467 216° Southwest 364 419 14,000 -1,300 Descending Atlanta Center
Sat 10:46:42 AM 35.8725 -80.3819 214° Southwest 358 412 13,300 -1,000 Descending Atlanta Center
Sat 10:47:10 AM 35.8358 -80.4169 218° Southwest 364 419 13,000 -787 Descending Atlanta Center
Sat 10:47:43 AM 35.8053 -80.4439 216° Southwest 290 334 12,500 -1,100 Descending Atlanta Center
Sat 10:48:10 AM 35.7708 -80.4708 212° Southwest 321 369 11,900 -1,377 Descending Atlanta Center
Sat 10:48:44 AM 35.7339 -80.5006 213° Southwest 267 307 11,100 -900 Descending Atlanta Center
Sat 10:49:10 AM 35.7075 -80.5172 207° Southwest 288 331 11,000 -600 Descending Atlanta Center
Sat 10:49:44 AM 35.6686 -80.5444 210° Southwest 266 306 10,500 -1,000 Descending Atlanta Center
Sat 10:50:10 AM 35.6439 -80.5608 208° Southwest 266 306 10,000 -1,180 Descending Atlanta Center
Sat 10:50:45 AM 35.6072 -80.5878 211° Southwest 260 299 9,300 -1,300 Descending Atlanta Center
Sat 10:51:10 AM 35.5828 -80.6067 212° Southwest 259 298 8,700 -1,300 Descending Atlanta Center
Sat 10:51:45 AM 35.5436 -80.6314 207° Southwest 253 291 8,000 -1,300 Descending Atlanta Center
Sat 10:52:10 AM 35.5211 -80.6478 211° Southwest 259 298 7,400 -1,279 Descending Atlanta Center
Sat 10:52:46 AM 35.4864 -80.6719 210° Southwest 250 288 6,700 -1,100 Descending Atlanta Center
Sat 10:53:10 AM 35.4619 -80.6908 212° Southwest 259 298 6,300 -1,180 Descending Atlanta Center
Sat 10:53:47 AM 35.4250 -80.7178 211° Southwest 243 280 5,500 -1,200 Descending Atlanta Center
Sat 10:54:10 AM 35.4086 -80.7261 203° Southwest 254 292 5,100 -1,400 Descending Atlanta Center
Sat 10:54:47 AM 35.3697 -80.7558 212° Southwest 234 269 4,100 -1,100 Descending Atlanta Center
Sat 10:55:10 AM 35.3533 -80.7667 208° Southwest 243 280 4,000 -492 Descending Atlanta Center
Sat 10:55:48 AM 35.3186 -80.7986 217° Southwest 220 253 3,600 -632 Descending Atlanta Center

Login

Don't have an account? Register now (free) for customized features, flight alerts, and more!